Domov               UVHVVR             MKGP            O straneh              
ZDRAVSTVENO VARSTVO RASTLIN
  MREŽA AGROMET. POSTAJ
 ► PROGNOSTIČNA OBVESTILA
AGROMETEOROLOŠKI PODATKI -
ARSO
OBVLADOVANJE TVEGANJ ZARADI
NEUGODNIH VREMENSKIH RAZMER
  ► NARAVNE NESREČE
  ► SUŠA/MOČA
  ► NAMAKANJE
  ► ŽLED (gozdarstvo)
KARTOGRAFSKI PRIKAZI
SPLETNE POVEZAVE
PROJEKTI IN PUBLIKACIJE

AGROMETEOROLOŠKA MREŽA: VREMENSKE POSTAJE IN FENOLOŠKA OPAZOVANJA

Pregled podatkov za lokacijo Braslovče (Pšaker), meteorološka postaja 39323

Pregled senzorjev na lokaciji

ID Ime Zadnja
vrednost
Datum
zadnje
spremembe
Tip
senzorja
1914 Temperatura 2 m (°C) 14,68 °C 12.12.2017 01:00 50YA
1915 Relativna vlaga 2 m (% RH) 60,34 % RH 12.12.2017 01:00 50YA
2040 Padavine (mm) 0 mm 12.12.2017 01:00 Rain-O-Matic
2041 Omočenost lista (U) 0 U 12.12.2017 01:00 A730WET

Pregled podatkov zadnjih 24 ur

Zap.
št.
Datum in čas Braslovče (Pšaker)
Omočenost
lista
Padavine Relativna
vlaga
2
m
Temperatura
2
m
0 12.12.2017 01:00 0 0 60,34 14,68
1 12.12.2017 00:30 0 0 62,2 14,38
2 12.12.2017 00:00 0 0 63,15 14,31
3 11.12.2017 23:30 0 0 61,83 14,48
4 11.12.2017 23:00 0 0 63,98 13,92
5 11.12.2017 22:30 0 0 65,27 13,77
6 11.12.2017 22:00 0 0 66,54 13,31
7 11.12.2017 21:30 0 0 76,14 11,36
8 11.12.2017 21:00 10 0 76,31 11,28
9 11.12.2017 20:30 10 0 69,89 12,45
10 11.12.2017 20:00 10 0 80,32 10,31
11 11.12.2017 19:30 10 0 85,01 9,38
12 11.12.2017 19:00 10 0 88,79 8,64
13 11.12.2017 18:30 10 0 90,79 8,06
14 11.12.2017 18:00 10 0 91,67 7,99
15 11.12.2017 17:30 10 0 88,52 8,55
16 11.12.2017 17:00 10 0 95,38 7,03
17 11.12.2017 16:30 10 0 98,68 6,62
18 11.12.2017 16:00 10 0 97,9 6,69
19 11.12.2017 15:30 10 0,2 99,78 7,35
20 11.12.2017 15:00 10 0,2 99,93 6,94
21 11.12.2017 14:30 10 0,4 99,93 5,32
22 11.12.2017 14:00 10 0,6 99,93 5,05
23 11.12.2017 13:30 10 0,4 99,93 4,57
24 11.12.2017 13:00 10 0,6 99,93 4,05
25 11.12.2017 12:30 10 0,4 99,93 3,42
26 11.12.2017 12:00 10 0,4 99,93 3,05
27 11.12.2017 11:30 10 0,4 99,93 2,59
28 11.12.2017 11:00 10 0,4 99,93 2,74
29 11.12.2017 10:30 10 0,6 99,93 3,08
30 11.12.2017 10:00 10 0,6 99,93 3,25
31 11.12.2017 09:30 10 0,6 99,93 2,78
32 11.12.2017 09:00 10 0,4 99,93 2,25
33 11.12.2017 08:30 10 0,4 99,93 2,1
34 11.12.2017 08:00 10 0,4 99,93 2
35 11.12.2017 07:30 10 0,6 99,93 1,71
36 11.12.2017 07:00 10 0,4 99,93 1,73
37 11.12.2017 06:30 10 0,2 99,93 1,37
38 11.12.2017 06:00 9 0,4 99,93 1,42
39 11.12.2017 05:30 8 0,6 99,93 1,27
40 11.12.2017 05:00 7 0,4 99,93 1,27
41 11.12.2017 04:30 4 0,6 99,93 1,29
42 11.12.2017 04:00 4 0,8 99,93 1,17
43 11.12.2017 03:30 3 0,6 99,93 1,29
44 11.12.2017 03:00 3 0 99,93 1,25
45 11.12.2017 02:30 5 0 99,93 1,2
46 11.12.2017 02:00 5 0 99,93 1
© 2011 Ministrstvo za kmetijstvo, gozdarstvo in prehrano. Vse pravice pridržane.